LST weather

Launceston Airport
Launceston, Tasmania, Australia

Public forecast

Using degrees Celsius for public forecast. Weather courtesy of forecast.io.

METAR (pilot weather report)

Retrieved 2017/11/19 16:30 UTC (23 minutes ago):

YMLT 191630Z AUTO 27001KT 9999 // NCD 11/08 Q1025 RF00.0/000.0

TAF (pilot weather forecast)

Retrieved 2017/11/19 12:48 UTC (4 hours ago):

TAF YMLT 191138Z 1912/2012 34007KT CAVOK FM191600 VRB05KT 9999 SCT015 FM192200 34014KT CAVOK